Time;durP1;ratioP1;P1;durP2;ratioP2;P2;SDS_P1;SDS_P2;PMS_P1;PMS_P2;Temp;Humidity;BMP_temperature;BMP_pressure;BME280_temperature;BME280_humidity;BME280_pressure;Samples;Min_cycle;Max_cycle;Signal;HPM_P1;HPM_P2
2021/06/03 00:00:21;;;;;;;3.85;2.47;;;;;;;17.95;42.56;100556.53;3377056;29;20225;-73
2021/06/03 00:02:04;;;;;;;5.13;2.13;;;;;;;17.90;41.98;100560.94;3376379;29;20044;-73
2021/06/03 00:03:45;;;;;;;5.28;2.13;;;;;;;17.87;42.12;100548.75;3377052;29;20051;-73
2021/06/03 00:05:31;;;;;;;3.42;1.90;;;;;;;17.85;42.89;100546.25;3376121;29;20523;-74
2021/06/03 00:07:12;;;;;;;3.53;2.20;;;;;;;17.87;42.63;100546.84;3376286;29;20103;-73
2021/06/03 00:08:53;;;;;;;3.45;2.30;;;;;;;17.84;42.39;100555.41;3377064;29;20040;-74
2021/06/03 00:10:38;;;;;;;5.15;2.42;;;;;;;17.86;41.99;100558.69;3376927;29;20523;-73
2021/06/03 00:12:18;;;;;;;4.47;2.53;;;;;;;17.82;41.85;100554.78;3377014;29;20524;-75
2021/06/03 00:13:59;;;;;;;4.72;2.25;;;;;;;17.79;41.83;100554.38;3376884;29;20048;-73
2021/06/03 00:15:40;;;;;;;5.00;2.47;;;;;;;17.76;41.86;100554.78;3376881;29;20048;-74
2021/06/03 00:17:21;;;;;;;2.55;1.50;;;;;;;17.75;42.19;100555.84;3375440;29;20458;-73
2021/06/03 00:19:07;;;;;;;2.13;1.77;;;;;;;17.75;42.63;100553.97;3376703;29;20518;-72
2021/06/03 00:20:48;;;;;;;4.80;2.70;;;;;;;17.78;42.67;100560.81;3376897;29;20131;-73
2021/06/03 00:22:29;;;;;;;3.40;2.63;;;;;;;17.77;42.62;100559.97;3376452;29;20036;-73
2021/06/03 00:24:11;;;;;;;5.18;2.80;;;;;;;17.78;42.13;100550.84;3376703;29;20575;-73
2021/06/03 00:25:52;;;;;;;2.10;1.88;;;;;;;17.74;42.10;100552.34;3375684;29;20048;-73
2021/06/03 00:27:45;;;;;;;5.90;2.35;;;;;;;17.73;42.36;100556.06;3376413;29;20237;-73
2021/06/03 00:29:25;;;;;;;3.55;2.17;;;;;;;17.66;42.05;100556.13;3376714;29;20068;-73
2021/06/03 00:31:06;;;;;;;7.75;2.30;;;;;;;17.66;41.97;100563.41;3374839;29;20108;-73
2021/06/03 00:32:48;;;;;;;3.25;1.83;;;;;;;17.62;41.96;100546.81;3376311;29;20474;-73
2021/06/03 00:34:28;;;;;;;6.30;2.80;;;;;;;17.65;42.36;100553.66;3376770;29;20047;-73
2021/06/03 00:36:10;;;;;;;2.58;1.88;;;;;;;17.70;42.20;100555.69;3376666;29;20419;-73
2021/06/03 00:37:51;;;;;;;4.38;2.22;;;;;;;17.75;42.57;100559.38;3376135;29;20428;-73
2021/06/03 00:39:32;;;;;;;2.58;1.80;;;;;;;17.80;43.23;100556.88;3376526;29;20044;-73
2021/06/03 00:41:14;;;;;;;4.47;2.33;;;;;;;17.84;42.82;100552.69;3376718;29;20411;-74
2021/06/03 00:42:55;;;;;;;3.90;2.15;;;;;;;17.79;42.57;100555.22;3375555;29;20495;-74
2021/06/03 00:44:37;;;;;;;5.15;2.38;;;;;;;17.83;42.12;100551.03;3376220;29;20049;-75
2021/06/03 00:46:18;;;;;;;2.80;1.90;;;;;;;17.83;42.29;100556.44;3375652;29;20055;-75
2021/06/03 00:47:59;;;;;;;7.65;2.38;;;;;;;17.81;42.25;100549.59;3375908;29;20044;-75
2021/06/03 00:49:39;;;;;;;7.45;2.60;;;;;;;17.83;41.72;100552.91;3376551;29;20045;-75
2021/06/03 00:51:21;;;;;;;4.30;2.40;;;;;;;17.78;41.90;100547.31;3375913;29;20052;-75
2021/06/03 00:53:07;;;;;;;2.58;2.20;;;;;;;17.75;41.82;100545.06;3372940;29;20033;-74
2021/06/03 00:54:49;;;;;;;3.80;2.30;;;;;;;17.72;41.94;100542.81;3375392;29;20051;-74
2021/06/03 00:56:29;;;;;;;2.97;1.92;;;;;;;17.68;42.82;100534.31;3376454;29;20052;-75
2021/06/03 00:58:10;;;;;;;4.93;2.10;;;;;;;17.75;43.25;100535.09;3376463;29;20508;-75
2021/06/03 00:59:51;;;;;;;2.85;1.65;;;;;;;17.81;43.11;100545.06;3375678;29;20046;-74
2021/06/03 01:01:33;;;;;;;4.32;1.73;;;;;;;17.83;42.96;100545.63;3373034;29;20089;-74
2021/06/03 01:03:14;;;;;;;5.72;1.80;;;;;;;17.87;43.11;100536.06;3360036;29;20056;-74
2021/06/03 01:04:56;;;;;;;5.13;2.05;;;;;;;17.93;43.23;100539.75;3370716;29;20043;-75
2021/06/03 01:06:36;;;;;;;2.63;2.00;;;;;;;18.00;43.34;100535.13;3373017;29;20570;-75
2021/06/03 01:08:19;;;;;;;4.32;2.53;;;;;;;18.00;42.81;100540.50;3373051;29;20044;-73
2021/06/03 01:10:15;;;;;;;4.38;2.30;;;;;;;18.01;42.18;100546.72;3376325;29;20079;-74
2021/06/03 01:12:13;;;;;;;2.47;2.08;;;;;;;17.99;41.96;100546.13;3375347;29;20052;-73
2021/06/03 01:14:12;;;;;;;3.95;2.17;;;;;;;18.01;42.49;100546.72;3373737;29;20048;-73
2021/06/03 01:15:54;;;;;;;3.72;1.90;;;;;;;18.02;42.74;100548.41;3362616;29;20053;-73
2021/06/03 01:17:36;;;;;;;4.05;2.33;;;;;;;18.02;42.73;100543.00;3360106;29;20045;-73
2021/06/03 01:19:27;;;;;;;2.80;1.70;;;;;;;18.05;43.00;100548.75;3373040;29;20503;-72
2021/06/03 01:21:32;;;;;;;2.38;1.75;;;;;;;18.04;42.26;100548.97;3349999;29;20053;-73
2021/06/03 01:23:20;;;;;;;5.55;2.03;;;;;;;18.07;42.69;100554.78;3384659;29;20044;-73
2021/06/03 01:25:01;;;;;;;4.05;2.05;;;;;;;18.11;42.71;100557.03;3374942;29;20048;-73
2021/06/03 01:26:45;;;;;;;7.18;2.35;;;;;;;18.15;42.89;100542.88;3372792;29;20479;-73
2021/06/03 01:28:26;;;;;;;2.40;1.73;;;;;;;18.23;43.02;100556.06;3375765;29;20053;-73
2021/06/03 01:30:16;;;;;;;3.70;2.28;;;;;;;18.27;42.82;100546.44;3375122;29;20151;-73
2021/06/03 01:31:58;;;;;;;4.55;2.58;;;;;;;18.34;42.45;100557.19;3375385;29;20060;-72
2021/06/03 01:33:42;;;;;;;3.40;1.88;;;;;;;18.33;42.17;100557.41;3375930;29;20131;-72
2021/06/03 01:35:27;;;;;;;5.90;2.53;;;;;;;18.34;42.63;100559.06;3374905;29;20053;-73
2021/06/03 01:37:09;;;;;;;3.15;2.60;;;;;;;18.36;42.45;100555.09;3372401;29;20044;-73
2021/06/03 01:38:50;;;;;;;3.38;1.92;;;;;;;18.37;41.96;100551.34;3372525;29;20095;-72
2021/06/03 01:40:32;;;;;;;3.90;2.28;;;;;;;18.35;41.73;100563.41;3375720;29;20562;-73
2021/06/03 01:42:16;;;;;;;3.92;2.10;;;;;;;18.34;42.10;100554.47;3375686;29;20068;-73
2021/06/03 01:43:57;;;;;;;6.38;2.17;;;;;;;18.37;42.13;100555.91;3374896;29;20105;-72
2021/06/03 01:45:39;;;;;;;4.03;2.05;;;;;;;18.39;41.87;100557.34;3372421;29;20048;-73
2021/06/03 01:47:20;;;;;;;5.70;2.33;;;;;;;18.40;41.49;100560.84;3372373;29;20044;-73
2021/06/03 01:49:03;;;;;;;4.35;2.65;;;;;;;18.38;41.39;100554.84;3372409;29;20054;-73
2021/06/03 01:50:44;;;;;;;;;;;;;;;18.43;40.99;100560.41;3376432;29;20563;-73
2021/06/03 01:52:26;;;;;;;5.72;2.45;;;;;;;18.35;41.25;100566.09;3374705;29;19992;-73
2021/06/03 01:54:07;;;;;;;5.05;2.50;;;;;;;18.33;41.58;100558.25;3375171;29;20052;-74
2021/06/03 01:55:48;;;;;;;3.27;2.03;;;;;;;18.38;41.91;100569.19;3374828;29;20048;-73
2021/06/03 01:57:30;;;;;;;4.38;1.60;;;;;;;18.42;42.09;100567.69;3372344;29;20672;-73
2021/06/03 01:59:27;;;;;;;4.53;2.15;;;;;;;18.47;41.90;100565.13;3361396;29;20056;-74
2021/06/03 02:01:08;;;;;;;4.65;2.15;;;;;;;18.51;42.00;100577.13;3384897;29;20111;-73
2021/06/03 02:02:50;;;;;;;2.70;2.13;;;;;;;18.56;41.75;100568.38;3378225;29;20131;-73
2021/06/03 02:04:36;;;;;;;6.75;2.30;;;;;;;18.61;41.82;100573.91;3374250;29;20577;-74
2021/06/03 02:06:17;;;;;;;4.65;2.17;;;;;;;18.65;41.73;100571.59;3375850;29;20060;-73
2021/06/03 02:07:58;;;;;;;3.67;2.33;;;;;;;18.69;41.42;100567.34;3374656;29;20040;-73
2021/06/03 02:09:39;;;;;;;3.17;1.95;;;;;;;18.70;40.99;100566.31;3372995;29;20048;-73
2021/06/03 02:11:22;;;;;;;9.15;2.30;;;;;;;18.64;40.57;100562.66;3373228;29;20061;-73
2021/06/03 02:13:11;;;;;;;7.28;2.55;;;;;;;18.61;40.88;100565.81;3360230;29;20044;-70
2021/06/03 02:14:56;;;;;;;5.38;2.13;;;;;;;18.64;41.31;100567.22;3371887;29;20052;-71
2021/06/03 02:16:44;;;;;;;5.75;2.15;;;;;;;18.69;41.36;100561.97;3372097;29;20040;-72
2021/06/03 02:18:35;;;;;;;3.88;1.90;;;;;;;18.74;40.47;100559.41;3360272;29;20041;-73
2021/06/03 02:20:20;;;;;;;3.70;2.28;;;;;;;18.78;40.73;100557.94;3372538;29;20044;-74
2021/06/03 02:22:03;;;;;;;3.55;1.58;;;;;;;18.77;39.89;100566.25;3372389;29;20076;-73
2021/06/03 02:23:48;;;;;;;9.20;2.42;;;;;;;18.72;40.40;100562.34;3372444;29;20586;-73
2021/06/03 02:25:29;;;;;;;2.47;1.83;;;;;;;18.74;40.06;100562.09;3373120;29;20080;-73
2021/06/03 02:27:11;;;;;;;6.07;1.83;;;;;;;18.68;39.92;100558.44;3374888;29;20052;-73
2021/06/03 02:28:55;;;;;;;3.50;1.80;;;;;;;18.62;39.77;100564.75;3374868;29;20041;-72
2021/06/03 02:30:36;;;;;;;2.85;1.88;;;;;;;18.65;40.04;100568.88;3375305;29;20046;-74
2021/06/03 02:32:20;;;;;;;2.67;1.90;;;;;;;18.60;39.75;100568.72;3361475;29;20532;-71
2021/06/03 02:34:05;;;;;;;1.65;1.48;;;;;;;18.56;39.98;100565.66;3376090;29;20040;-71
2021/06/03 02:35:48;;;;;;;3.33;2.20;;;;;;;18.58;40.20;100568.13;3377135;29;20563;-73
2021/06/03 02:37:30;;;;;;;2.55;1.75;;;;;;;18.56;40.10;100571.06;3364177;29;20048;-74
2021/06/03 02:39:13;;;;;;;5.35;1.98;;;;;;;18.58;40.44;100568.94;3359997;29;20049;-72
2021/06/03 02:40:58;;;;;;;4.38;2.25;;;;;;;18.61;40.10;100567.66;3372077;29;20071;-72
2021/06/03 02:42:41;;;;;;;5.40;2.63;;;;;;;18.65;40.51;100568.88;3374526;29;20040;-73
2021/06/03 02:44:22;;;;;;;6.97;3.83;;;;;;;18.69;40.23;100570.06;3361744;29;20036;-73
2021/06/03 02:46:04;;;;;;;4.35;2.55;;;;;;;18.72;40.23;100565.06;3384781;29;20048;-72
2021/06/03 02:47:45;;;;;;;4.57;1.98;;;;;;;18.75;39.84;100569.22;3380329;29;20044;-72
2021/06/03 02:49:27;;;;;;;6.63;1.90;;;;;;;18.77;39.90;100566.25;3390079;29;20100;-72
2021/06/03 02:51:08;;;;;;;5.45;1.88;;;;;;;18.77;39.58;100563.56;3376084;29;20153;-72
2021/06/03 02:52:49;;;;;;;3.93;1.27;;;;;;;18.79;40.11;100567.69;3377352;29;20033;-74
2021/06/03 02:54:32;;;;;;;3.45;1.60;;;;;;;18.85;40.19;100579.47;3363966;29;20189;-74
2021/06/03 02:56:15;;;;;;;3.97;1.80;;;;;;;18.88;39.96;100569.03;3375455;29;20052;-72
2021/06/03 02:57:56;;;;;;;5.78;2.28;;;;;;;18.79;39.54;100553.34;3376936;29;20070;-72
2021/06/03 02:59:39;;;;;;;2.65;2.00;;;;;;;18.86;39.66;100559.50;3386592;29;20142;-73
2021/06/03 03:01:20;;;;;;;4.43;2.00;;;;;;;18.91;39.63;100552.38;3364032;29;20049;-71
2021/06/03 03:03:04;;;;;;;4.70;1.80;;;;;;;18.98;39.66;100554.16;3374231;29;20044;-74
2021/06/03 03:04:44;;;;;;;4.28;1.65;;;;;;;19.03;39.52;100554.31;3363823;29;20550;-74
2021/06/03 03:06:25;;;;;;;3.15;1.65;;;;;;;19.07;39.56;100556.31;3364860;29;20049;-74
2021/06/03 03:08:07;;;;;;;4.82;1.90;;;;;;;19.08;39.32;100554.44;3372288;29;20071;-74
2021/06/03 03:09:48;;;;;;;9.25;6.55;;;;;;;19.05;39.17;100555.72;3377577;29;20467;-74
2021/06/03 03:11:29;;;;;;;8.32;4.55;;;;;;;19.04;38.85;100555.94;3363785;29;20135;-74
2021/06/03 03:13:13;;;;;;;5.53;2.63;;;;;;;19.05;39.23;100546.78;3371602;29;20055;-74
2021/06/03 03:14:55;;;;;;;4.80;3.20;;;;;;;19.04;39.16;100537.84;3374306;29;20048;-73
2021/06/03 03:16:36;;;;;;;5.07;1.77;;;;;;;19.07;39.11;100540.09;3377573;29;20127;-75
2021/06/03 03:18:18;;;;;;;4.43;2.25;;;;;;;19.12;38.60;100551.03;3377384;29;20112;-72
2021/06/03 03:19:59;;;;;;;3.25;1.30;;;;;;;19.11;38.69;100549.41;3363578;29;20605;-72
2021/06/03 03:21:40;;;;;;;3.92;2.05;;;;;;;19.14;38.99;100554.34;3371561;29;20040;-73
2021/06/03 03:23:22;;;;;;;2.17;1.45;;;;;;;19.17;39.04;100553.88;3377171;29;20048;-73
2021/06/03 03:25:11;;;;;;;4.32;2.40;;;;;;;19.19;38.51;100556.34;3377579;29;20048;-73
2021/06/03 03:26:52;;;;;;;4.03;2.10;;;;;;;19.18;38.24;100550.13;3376368;29;20056;-72
2021/06/03 03:28:33;;;;;;;2.72;1.52;;;;;;;19.20;38.60;100554.47;3376682;29;20500;-72
2021/06/03 03:30:17;;;;;;;5.15;2.03;;;;;;;19.24;38.63;100547.56;3377418;29;20567;-73
2021/06/03 03:31:57;;;;;;;4.18;1.67;;;;;;;19.29;39.01;100553.91;3376178;29;20558;-74
2021/06/03 03:33:40;;;;;;;3.03;1.35;;;;;;;19.36;38.57;100549.25;3374064;29;20083;-74
2021/06/03 03:35:21;;;;;;;1.77;1.45;;;;;;;19.36;38.09;100543.00;3377193;29;20139;-74
2021/06/03 03:37:03;;;;;;;5.85;2.08;;;;;;;19.36;38.31;100543.00;3375229;29;20131;-74
2021/06/03 03:38:46;;;;;;;3.25;1.67;;;;;;;19.38;38.66;100540.88;3363454;29;20133;-73
2021/06/03 03:40:27;;;;;;;5.20;1.50;;;;;;;19.41;38.61;100540.41;3363572;29;20489;-74
2021/06/03 03:42:11;;;;;;;2.35;1.40;;;;;;;19.49;38.39;100542.81;3361035;29;20584;-73
2021/06/03 03:43:52;;;;;;;2.30;1.67;;;;;;;19.53;38.57;100548.56;3364076;29;20072;-74
2021/06/03 03:45:34;;;;;;;4.28;1.80;;;;;;;19.52;37.77;100547.75;3364590;29;20097;-73
2021/06/03 03:47:15;;;;;;;4.03;1.70;;;;;;;19.50;37.72;100544.44;3357772;29;20049;-74
2021/06/03 03:48:56;;;;;;;5.90;1.97;;;;;;;19.51;38.56;100540.66;3363422;29;20131;-75
2021/06/03 03:50:37;;;;;;;2.97;1.52;;;;;;;19.54;39.01;100542.09;3370594;29;20412;-77
2021/06/03 03:52:20;;;;;;;8.95;2.33;;;;;;;19.64;38.83;100545.03;3373505;29;20540;-77
2021/06/03 03:54:01;;;;;;;4.77;2.30;;;;;;;19.70;38.95;100546.03;3373696;29;20108;-76
2021/06/03 03:55:41;;;;;;;4.53;2.13;;;;;;;19.75;39.44;100543.47;3373772;29;20139;-78
2021/06/03 03:57:24;;;;;;;8.38;2.55;;;;;;;19.78;38.59;100549.22;3373573;29;20503;-79
2021/06/03 03:59:05;;;;;;;4.68;2.08;;;;;;;19.81;39.38;100551.44;3374080;29;20040;-80
2021/06/03 04:00:46;;;;;;;5.17;2.03;;;;;;;19.81;38.85;100545.22;3373861;29;20059;-74
2021/06/03 04:02:36;;;;;;;6.13;2.15;;;;;;;19.82;39.42;100536.84;3374558;29;20524;-73
2021/06/03 04:04:17;;;;;;;7.27;2.70;;;;;;;19.88;40.21;100542.38;3376702;29;20064;-73
2021/06/03 04:05:58;;;;;;;2.53;1.60;;;;;;;19.86;39.63;100541.81;3388922;29;20051;-72
2021/06/03 04:07:41;;;;;;;5.63;1.88;;;;;;;19.86;39.78;100539.94;3378713;29;20135;-72
2021/06/03 04:09:23;;;;;;;3.78;1.92;;;;;;;19.82;39.17;100544.97;3376083;29;20531;-72
2021/06/03 04:11:04;;;;;;;;;;;;;;;19.90;39.29;100543.78;3373903;29;20041;-73
2021/06/03 04:12:51;;;;;;;3.85;2.05;;;;;;;19.90;40.05;100549.19;3374112;29;19916;-71
2021/06/03 04:14:32;;;;;;;3.38;1.98;;;;;;;19.92;39.81;100555.22;3373358;29;20048;-72
2021/06/03 04:16:13;;;;;;;3.70;2.00;;;;;;;19.94;40.00;100555.00;3373485;29;20048;-74
2021/06/03 04:17:54;;;;;;;8.20;2.35;;;;;;;19.94;39.86;100555.00;3375595;29;20052;-73
2021/06/03 04:19:38;;;;;;;6.07;3.30;;;;;;;19.98;40.08;100557.00;3373565;29;20574;-73
2021/06/03 04:21:19;;;;;;;6.30;2.20;;;;;;;20.02;40.88;100552.75;3373428;29;20048;-74
2021/06/03 04:23:00;;;;;;;12.70;2.22;;;;;;;20.10;40.68;100558.88;3373005;29;20403;-73
2021/06/03 04:24:44;;;;;;;10.88;2.70;;;;;;;20.17;40.65;100559.56;3373565;29;20447;-73
2021/06/03 04:26:25;;;;;;;12.73;2.23;;;;;;;20.20;40.35;100559.91;3373221;29;20044;-72
2021/06/03 04:28:05;;;;;;;3.38;2.00;;;;;;;20.22;39.57;100557.81;3376618;29;20048;-74
2021/06/03 04:29:46;;;;;;;2.53;1.50;;;;;;;20.22;39.63;100556.97;3376854;29;20101;-76
2021/06/03 04:31:27;;;;;;;9.00;2.83;;;;;;;20.21;38.71;100552.59;3376884;29;20049;-73
2021/06/03 04:33:09;;;;;;;2.88;1.73;;;;;;;20.24;39.90;100555.69;3375964;29;20124;-74
2021/06/03 04:34:50;;;;;;;9.73;2.78;;;;;;;20.25;39.68;100561.91;3376450;29;20036;-75
2021/06/03 04:36:31;;;;;;;5.63;2.37;;;;;;;20.27;40.10;100559.81;3376767;29;20456;-74
2021/06/03 04:38:11;;;;;;;4.50;1.90;;;;;;;20.31;40.73;100555.53;3374887;29;20153;-73
2021/06/03 04:39:52;;;;;;;7.07;2.30;;;;;;;20.31;40.24;100560.97;3376587;29;20071;-74
2021/06/03 04:41:33;;;;;;;8.40;2.33;;;;;;;20.34;39.41;100557.81;3376403;29;20112;-75
2021/06/03 04:43:15;;;;;;;7.28;2.35;;;;;;;20.37;40.01;100564.63;3376229;29;20076;-75
2021/06/03 04:44:56;;;;;;;3.30;1.92;;;;;;;20.40;40.72;100570.38;3375670;29;20459;-73
2021/06/03 04:46:37;;;;;;;7.03;2.43;;;;;;;20.46;41.29;100572.13;3375868;29;20051;-74
2021/06/03 04:48:17;;;;;;;13.32;2.15;;;;;;;20.46;40.62;100566.69;3376605;29;20048;-75
2021/06/03 04:49:58;;;;;;;4.57;2.20;;;;;;;20.48;39.28;100572.72;3376870;29;20132;-76
2021/06/03 04:51:39;;;;;;;11.32;2.10;;;;;;;20.46;38.97;100566.69;3376405;29;20510;-74
2021/06/03 04:53:20;;;;;;;6.47;2.67;;;;;;;20.43;38.19;100563.66;3375726;29;20412;-75
2021/06/03 04:55:07;;;;;;;9.00;6.03;;;;;;;20.42;37.72;100568.25;3376338;29;20052;-77
2021/06/03 04:56:49;;;;;;;12.85;5.50;;;;;;;20.36;37.36;100576.50;3376424;29;20060;-76
2021/06/03 04:58:31;;;;;;;6.25;3.47;;;;;;;20.39;37.89;100574.13;3375500;29;20534;-74
2021/06/03 05:00:15;;;;;;;6.05;2.85;;;;;;;20.45;38.25;100572.38;3376060;29;20587;-74
2021/06/03 05:01:56;;;;;;;3.50;1.80;;;;;;;20.46;38.12;100564.00;3376388;29;20041;-75
2021/06/03 05:03:37;;;;;;;7.70;1.80;;;;;;;20.48;37.69;100564.59;3376229;29;20786;-74
2021/06/03 05:05:18;;;;;;;4.93;1.90;;;;;;;20.52;38.36;100573.03;3376081;29;20064;-77
2021/06/03 05:06:58;;;;;;;5.72;1.90;;;;;;;20.55;38.47;100560.94;3376505;29;20051;-76
2021/06/03 05:08:39;;;;;;;5.00;1.60;;;;;;;20.59;38.46;100567.53;3375801;29;20048;-75
2021/06/03 05:10:21;;;;;;;6.90;1.87;;;;;;;20.58;38.39;100550.47;3375401;29;20092;-75
2021/06/03 05:12:01;;;;;;;12.25;2.00;;;;;;;20.69;38.83;100565.84;3372699;29;20071;-76
2021/06/03 05:13:44;;;;;;;3.60;2.38;;;;;;;20.76;39.59;100563.03;3376222;29;20075;-72
2021/06/03 05:15:25;;;;;;;5.43;1.75;;;;;;;20.83;40.82;100561.00;3375952;29;20046;-76
2021/06/03 05:17:06;;;;;;;3.83;2.03;;;;;;;20.85;40.13;100560.75;3376500;29;20044;-75
2021/06/03 05:18:46;;;;;;;8.53;1.83;;;;;;;20.92;39.34;100559.53;3376701;29;20045;-73
2021/06/03 05:20:28;;;;;;;9.00;2.33;;;;;;;20.95;40.56;100562.84;3376605;29;20476;-77
2021/06/03 05:22:09;;;;;;;5.13;2.22;;;;;;;21.05;41.56;100566.56;3378856;29;20040;-79
2021/06/03 05:23:50;;;;;;;5.93;2.00;;;;;;;21.14;42.86;100556.16;3378991;29;20059;-70
2021/06/03 05:25:32;;;;;;;4.23;2.10;;;;;;;21.25;43.78;100563.41;3376561;29;20491;-74
2021/06/03 05:27:13;;;;;;;16.95;2.40;;;;;;;21.36;44.18;100556.28;3374635;29;20401;-74
2021/06/03 05:28:54;;;;;;;7.43;1.90;;;;;;;21.52;43.89;100558.19;3376316;29;20055;-71
2021/06/03 05:30:35;;;;;;;4.70;1.83;;;;;;;21.63;43.26;100561.91;3375719;29;20407;-74
2021/06/03 05:32:16;;;;;;;10.20;2.50;;;;;;;21.72;42.18;100560.44;3375980;29;20177;-73
2021/06/03 05:33:56;;;;;;;7.67;1.87;;;;;;;21.78;41.65;100558.63;3376181;29;20057;-72
2021/06/03 05:35:37;;;;;;;4.50;1.83;;;;;;;21.90;41.40;100561.25;3375041;29;20420;-73
2021/06/03 05:37:18;;;;;;;4.28;1.65;;;;;;;21.95;40.47;100567.59;3375542;29;20047;-73
2021/06/03 05:38:59;;;;;;;5.45;1.58;;;;;;;22.02;40.15;100566.56;3375767;29;20048;-74
2021/06/03 05:40:40;;;;;;;3.37;1.37;;;;;;;22.07;39.55;100562.06;3376243;29;20050;-74
2021/06/03 05:42:21;;;;;;;4.40;1.67;;;;;;;22.13;39.02;100566.50;3364745;29;20041;-73
2021/06/03 05:44:02;;;;;;;5.45;1.60;;;;;;;22.17;38.70;100551.31;3364266;29;20048;-74
2021/06/03 05:45:44;;;;;;;2.35;1.50;;;;;;;22.19;38.66;100551.94;3364558;29;20089;-72
2021/06/03 05:47:24;;;;;;;4.07;1.30;;;;;;;22.28;38.40;100552.34;3365510;29;20579;-74
2021/06/03 05:49:07;;;;;;;11.43;1.97;;;;;;;22.33;38.03;100551.56;3375713;29;20040;-74
2021/06/03 05:50:48;;;;;;;3.47;1.73;;;;;;;22.36;37.85;100560.06;3373012;29;20068;-73
2021/06/03 05:52:28;;;;;;;3.23;1.93;;;;;;;22.42;37.61;100558.22;3376640;29;20040;-74
2021/06/03 05:54:10;;;;;;;3.77;1.50;;;;;;;22.46;37.27;100553.09;3376160;29;20408;-72
2021/06/03 05:55:51;;;;;;;3.65;1.33;;;;;;;22.50;37.14;100552.34;3375612;29;20123;-72
2021/06/03 05:57:31;;;;;;;4.97;1.50;;;;;;;22.53;36.76;100548.31;3375640;29;20494;-73
2021/06/03 05:59:12;;;;;;;4.60;1.53;;;;;;;22.57;36.71;100550.25;3375897;29;20469;-74
2021/06/03 06:00:53;;;;;;;3.43;1.10;;;;;;;22.59;36.19;100553.56;3375433;29;20048;-72
2021/06/03 06:02:49;;;;;;;6.87;1.53;;;;;;;22.63;36.23;100564.72;3375033;29;20041;-73
2021/06/03 06:06:22;;;;;;;3.03;1.43;;;;;;;22.65;35.59;100549.81;3375577;29;20052;-73
2021/06/03 06:08:04;;;;;;;4.68;1.50;;;;;;;22.72;35.63;100573.25;3374615;29;20041;-73
2021/06/03 06:09:45;;;;;;;2.33;1.58;;;;;;;22.74;35.58;100568.38;3375824;29;20048;-74
2021/06/03 06:11:28;;;;;;;8.07;2.10;;;;;;;22.77;35.13;100571.44;3375904;29;20159;-72
2021/06/03 06:13:10;;;;;;;5.28;2.20;;;;;;;22.80;35.36;100572.81;3375101;29;20907;-73
2021/06/03 06:14:51;;;;;;;2.33;1.58;;;;;;;22.85;35.43;100567.44;3374759;29;20040;-75
2021/06/03 06:16:32;;;;;;;3.83;2.20;;;;;;;22.87;35.25;100565.28;3373398;29;20049;-73
2021/06/03 06:18:13;;;;;;;3.60;1.58;;;;;;;22.94;35.22;100565.91;3375446;29;20051;-72
2021/06/03 06:19:54;;;;;;;2.63;1.43;;;;;;;22.97;34.88;100565.41;3374694;29;20045;-73
2021/06/03 06:21:35;;;;;;;6.27;1.50;;;;;;;23.01;34.41;100561.13;3375340;29;20059;-73
2021/06/03 06:23:17;;;;;;;2.92;1.27;;;;;;;23.09;34.55;100559.84;3374744;29;20040;-73
2021/06/03 06:25:02;;;;;;;6.70;2.78;;;;;;;23.17;34.30;100553.94;3375440;29;20048;-72
2021/06/03 06:26:44;;;;;;;5.68;2.10;;;;;;;23.28;33.86;100555.69;3374608;29;20044;-74
2021/06/03 06:28:25;;;;;;;5.97;2.03;;;;;;;23.37;33.93;100556.03;3375029;29;20141;-71
2021/06/03 06:30:08;;;;;;;4.80;1.90;;;;;;;23.49;34.00;100555.84;3375638;29;20357;-73
2021/06/03 06:31:49;;;;;;;3.15;1.60;;;;;;;23.59;34.23;100566.84;3374270;29;20052;-72
2021/06/03 06:33:30;;;;;;;3.33;1.53;;;;;;;23.68;33.95;100556.31;3372037;29;20067;-72
2021/06/03 06:35:12;;;;;;;1.80;1.10;;;;;;;23.78;33.92;100558.31;3384880;29;20055;-73
2021/06/03 06:36:53;;;;;;;5.50;1.67;;;;;;;23.85;33.77;100551.56;3377797;29;20048;-72
2021/06/03 06:38:34;;;;;;;2.37;1.40;;;;;;;23.95;33.79;100550.81;3374824;29;20048;-72
2021/06/03 06:40:15;;;;;;;3.53;1.50;;;;;;;24.04;33.65;100562.03;3375040;29;20044;-71
2021/06/03 06:41:56;;;;;;;7.70;2.03;;;;;;;24.11;33.16;100554.44;3375314;29;20056;-72
2021/06/03 06:43:38;;;;;;;2.55;1.13;;;;;;;24.17;33.00;100556.13;3375055;29;20519;-73
2021/06/03 06:45:20;;;;;;;1.80;1.20;;;;;;;24.21;32.87;100551.78;3375474;29;20076;-73
2021/06/03 06:47:02;;;;;;;5.35;1.80;;;;;;;24.28;32.23;100565.97;3375286;29;20555;-73
2021/06/03 06:48:42;;;;;;;3.28;1.33;;;;;;;24.30;32.08;100572.00;3375507;29;20648;-71
2021/06/03 06:50:24;;;;;;;5.10;1.30;;;;;;;24.40;31.57;100562.25;3375448;29;20084;-74
2021/06/03 06:52:05;;;;;;;8.27;1.58;;;;;;;24.46;30.92;100569.38;3375073;29;20044;-70
2021/06/03 06:53:46;;;;;;;7.13;1.58;;;;;;;24.51;30.93;100559.31;3375001;29;20612;-71
2021/06/03 06:55:27;;;;;;;5.13;1.80;;;;;;;24.61;30.90;100561.28;3374326;29;20052;-73
2021/06/03 06:57:08;;;;;;;6.50;1.60;;;;;;;24.66;30.99;100558.56;3374898;29;20037;-72
2021/06/03 06:58:49;;;;;;;5.70;1.38;;;;;;;24.77;30.79;100564.88;3375188;29;20041;-72
2021/06/03 07:00:34;;;;;;;3.67;1.37;;;;;;;24.85;30.95;100555.34;3375269;29;20415;-71
2021/06/03 07:02:14;;;;;;;5.50;1.35;;;;;;;24.92;30.90;100567.66;3375731;29;20064;-73
2021/06/03 07:03:55;;;;;;;7.90;1.27;;;;;;;25.01;30.88;100559.75;3375653;29;20055;-72
2021/06/03 07:05:41;;;;;;;5.07;1.27;;;;;;;25.07;30.70;100561.41;3375394;29;20056;-72
2021/06/03 07:07:22;;;;;;;7.90;1.00;;;;;;;25.12;30.18;100555.97;3376574;29;20044;-73
2021/06/03 07:09:04;;;;;;;3.47;1.13;;;;;;;25.22;30.41;100558.75;3377570;29;20044;-74
2021/06/03 07:10:44;;;;;;;4.13;1.10;;;;;;;25.28;30.00;100564.22;3376706;29;20105;-72
2021/06/03 07:12:25;;;;;;;1.87;1.20;;;;;;;25.36;30.07;100566.41;3377574;29;20045;-70
2021/06/03 07:14:06;;;;;;;5.57;1.13;;;;;;;25.42;31.00;100568.84;3377779;29;20571;-71
2021/06/03 07:15:47;;;;;;;4.27;1.13;;;;;;;25.49;30.86;100568.59;3377963;29;20080;-72
2021/06/03 07:17:28;;;;;;;4.50;1.42;;;;;;;25.53;30.66;100556.06;3377473;29;20132;-73
2021/06/03 07:19:09;;;;;;;2.40;1.10;;;;;;;25.58;30.89;100558.78;3377501;29;20052;-72
2021/06/03 07:20:49;;;;;;;4.13;1.60;;;;;;;25.64;30.73;100573.25;3377718;29;20072;-71
2021/06/03 07:22:30;;;;;;;5.23;1.63;;;;;;;25.67;31.15;100561.78;3377504;29;20096;-72
2021/06/03 07:24:11;;;;;;;5.83;1.70;;;;;;;25.74;30.86;100567.78;3377010;29;20048;-73
2021/06/03 07:25:55;;;;;;;2.37;1.23;;;;;;;25.77;30.97;100577.34;3376476;29;20511;-72
2021/06/03 07:27:38;;;;;;;7.80;1.75;;;;;;;25.80;30.51;100577.59;3376113;29;20051;-73
2021/06/03 07:29:20;;;;;;;4.40;1.35;;;;;;;25.83;30.05;100570.78;3376818;29;20154;-72
2021/06/03 07:31:00;;;;;;;2.17;1.17;;;;;;;25.88;29.69;100563.41;3376349;29;20060;-71
2021/06/03 07:32:41;;;;;;;2.87;1.20;;;;;;;25.90;29.87;100565.88;3362850;29;20044;-71
2021/06/03 07:34:22;;;;;;;1.45;0.98;;;;;;;25.95;29.72;100582.25;3370986;29;20072;-72
2021/06/03 07:36:03;;;;;;;4.07;1.67;;;;;;;26.01;29.22;100592.09;3377230;29;20044;-73
2021/06/03 07:37:45;;;;;;;3.70;1.30;;;;;;;26.07;29.09;100576.50;3377129;29;20112;-71
2021/06/03 07:39:27;;;;;;;7.00;1.35;;;;;;;26.15;29.07;100564.19;3377425;29;20191;-71
2021/06/03 07:41:08;;;;;;;4.85;1.55;;;;;;;26.21;29.08;100566.63;3377247;29;20131;-70
2021/06/03 07:42:50;;;;;;;4.30;1.52;;;;;;;26.24;28.89;100568.81;3377161;29;20044;-70
2021/06/03 07:44:31;;;;;;;5.45;1.40;;;;;;;26.26;28.32;100574.00;3377135;29;20083;-71
2021/06/03 07:46:14;;;;;;;5.83;1.20;;;;;;;26.33;27.94;100571.78;3376651;29;20415;-72
2021/06/03 07:47:58;;;;;;;4.40;1.65;;;;;;;26.34;28.12;100570.69;3376929;29;20096;-72
2021/06/03 07:49:39;;;;;;;3.35;1.13;;;;;;;26.39;27.83;100573.41;3376756;29;20115;-72
2021/06/03 07:51:19;;;;;;;6.00;1.13;;;;;;;26.40;27.61;100566.84;3376572;29;20518;-71
2021/06/03 07:53:02;;;;;;;5.93;1.47;;;;;;;26.42;27.59;100564.66;3373098;29;20040;-72
2021/06/03 07:54:42;;;;;;;7.30;1.38;;;;;;;26.47;27.02;100570.09;3375363;29;20070;-72
2021/06/03 07:56:23;;;;;;;3.47;1.10;;;;;;;26.57;26.85;100573.94;3376655;29;20423;-73